Terminal Aerodrome Forecast
Issued by NWS

Home | Current Version | Previous Version | Text Only | Print | Product List | Glossary On
Versions: 1 2 3 4 5 6 7 8 9 10 11 12 13 14
000
FTUS44 KLZK 051135
TAFADF
TAF
KADF 051135Z 0512/0612 00000KT P6SM BKN250
      TEMPO 0512/0513 5SM BR
     FM051500 15006KT P6SM SCT050
     FM060000 13003KT P6SM SCT250=

USA.gov is the U.S. government's official web portal to all federal, state and local government web resources and services.